createdAt,value
2022-11-09T00:00:43.835Z,14.27
2022-11-09T00:01:45.144Z,14.23
2022-11-09T00:02:44.260Z,14.16
2022-11-09T00:03:49.292Z,14.26
2022-11-09T00:04:47.732Z,14.17
2022-11-09T00:05:45.690Z,14.04
2022-11-09T00:06:45.888Z,14.20
2022-11-09T00:07:45.250Z,14.19
2022-11-09T00:08:48.141Z,14.04
2022-11-09T00:09:43.647Z,14.04
2022-11-09T00:10:45.297Z,14.04
2022-11-09T00:11:44.572Z,13.94
2022-11-09T00:12:45.800Z,14.12
2022-11-09T00:13:43.650Z,13.93
2022-11-09T00:14:48.125Z,14.02
2022-11-09T00:15:43.842Z,13.88
2022-11-09T00:16:44.778Z,13.91
2022-11-09T00:17:44.072Z,13.90
2022-11-09T00:18:49.933Z,13.98
2022-11-09T00:19:44.770Z,13.94
2022-11-09T00:20:47.610Z,13.96
2022-11-09T00:21:44.507Z,13.98
2022-11-09T00:22:46.992Z,14.01
2022-11-09T00:23:44.870Z,13.98
2022-11-09T00:24:44.315Z,14.02
2022-11-09T00:25:45.538Z,13.91
2022-11-09T00:26:44.437Z,14.01
2022-11-09T00:27:46.216Z,13.88
2022-11-09T00:28:43.419Z,13.88
2022-11-09T00:29:44.478Z,13.88
2022-11-09T00:30:45.822Z,13.91
2022-11-09T00:31:49.018Z,13.91
2022-11-09T00:32:47.654Z,13.93
2022-11-09T00:33:44.727Z,13.87
2022-11-09T00:34:45.544Z,13.93
2022-11-09T00:35:43.435Z,14.01
2022-11-09T00:36:43.534Z,14.01
2022-11-09T00:37:43.504Z,13.99
2022-11-09T00:38:43.958Z,13.93
2022-11-09T00:39:44.912Z,13.79
2022-11-09T00:40:43.267Z,13.87
2022-11-09T00:41:44.523Z,13.87
2022-11-09T00:42:43.757Z,13.80
2022-11-09T00:43:43.669Z,13.88
2022-11-09T00:44:46.413Z,13.87
2022-11-09T00:45:44.463Z,13.73
2022-11-09T00:46:43.215Z,13.83
2022-11-09T00:47:43.200Z,13.76
2022-11-09T00:48:44.384Z,13.68
2022-11-09T00:49:45.215Z,13.69
2022-11-09T00:50:45.524Z,13.79
2022-11-09T00:51:44.536Z,13.69
2022-11-09T00:52:44.991Z,13.71
2022-11-09T00:53:45.469Z,13.72
2022-11-09T00:54:45.148Z,13.68
2022-11-09T00:55:44.042Z,13.65
2022-11-09T00:56:44.034Z,13.72
2022-11-09T00:57:44.712Z,13.63
2022-11-09T00:58:43.087Z,13.62
2022-11-09T00:59:44.625Z,13.61
2022-11-09T01:00:44.066Z,13.54
2022-11-09T01:01:45.368Z,13.66
2022-11-09T01:02:44.741Z,13.63
2022-11-09T01:03:45.650Z,13.59
2022-11-09T01:04:43.838Z,13.63
2022-11-09T01:05:43.008Z,13.69
2022-11-09T01:06:43.026Z,13.53
2022-11-09T01:07:42.958Z,13.53
2022-11-09T01:08:43.385Z,13.65
2022-11-09T01:09:44.988Z,13.48
2022-11-09T01:10:44.182Z,13.48
2022-11-09T01:11:46.536Z,13.59
2022-11-09T01:12:44.817Z,13.51
2022-11-09T01:13:45.281Z,13.65
2022-11-09T01:14:42.977Z,13.59
2022-11-09T01:15:45.381Z,13.59
2022-11-09T01:16:43.946Z,13.47
2022-11-09T01:17:42.919Z,13.53
2022-11-09T01:18:43.869Z,13.47
2022-11-09T01:19:43.231Z,13.57
2022-11-09T01:20:44.388Z,13.44
2022-11-09T01:21:46.673Z,13.48
2022-11-09T01:22:46.727Z,13.43
2022-11-09T01:23:43.709Z,13.43
2022-11-09T01:24:44.901Z,13.46
2022-11-09T01:25:45.385Z,13.46
2022-11-09T01:26:42.727Z,13.43
2022-11-09T01:27:44.241Z,13.51
2022-11-09T01:28:44.806Z,13.50
2022-11-09T01:29:44.216Z,13.51
2022-11-09T01:30:43.930Z,13.47
2022-11-09T01:31:45.216Z,13.55
2022-11-09T01:32:43.382Z,13.39
2022-11-09T01:33:44.190Z,13.38
2022-11-09T01:34:45.238Z,13.41
2022-11-09T01:35:43.804Z,13.41
2022-11-09T01:36:45.469Z,13.44
2022-11-09T01:37:46.506Z,13.47
2022-11-09T01:38:43.939Z,13.36
2022-11-09T01:39:46.564Z,13.44
2022-11-09T01:40:44.562Z,13.41
2022-11-09T01:41:44.954Z,13.39
2022-11-09T01:42:44.790Z,13.53
2022-11-09T01:43:47.249Z,13.44
2022-11-09T01:44:45.076Z,13.36
2022-11-09T01:45:42.830Z,13.32
2022-11-09T01:46:43.470Z,13.43
2022-11-09T01:47:45.302Z,13.31
2022-11-09T01:48:42.558Z,13.32
2022-11-09T01:49:45.456Z,13.27
2022-11-09T01:50:43.587Z,13.31
2022-11-09T01:51:44.643Z,13.22
2022-11-09T01:52:42.479Z,13.17
2022-11-09T01:53:42.909Z,13.13
2022-11-09T01:54:44.887Z,13.12
2022-11-09T01:55:42.971Z,13.04
2022-11-09T01:56:42.342Z,13.03
2022-11-09T01:57:42.365Z,13.03
2022-11-09T01:58:42.919Z,12.98
2022-11-09T01:59:42.924Z,12.98
2022-11-09T02:00:43.303Z,12.95
2022-11-09T02:01:43.698Z,12.87
2022-11-09T02:02:43.375Z,12.94
2022-11-09T02:03:45.207Z,12.87
2022-11-09T02:04:42.531Z,12.84
2022-11-09T02:05:43.111Z,12.96
2022-11-09T02:06:44.485Z,12.84
2022-11-09T02:07:44.155Z,12.91
2022-11-09T02:08:42.261Z,12.96
2022-11-09T02:09:42.671Z,12.81
2022-11-09T02:10:45.664Z,12.89
2022-11-09T02:11:42.646Z,12.81
2022-11-09T02:12:42.231Z,12.87
2022-11-09T02:13:42.302Z,12.94
2022-11-09T02:14:42.136Z,12.89
2022-11-09T02:15:45.877Z,12.89
2022-11-09T02:16:44.139Z,12.88
2022-11-09T02:17:42.350Z,12.91
2022-11-09T02:18:43.147Z,12.91
2022-11-09T02:19:44.564Z,12.88
2022-11-09T02:20:42.599Z,12.77
2022-11-09T02:21:42.912Z,12.81
2022-11-09T02:22:43.781Z,12.81
2022-11-09T02:23:43.887Z,12.77
2022-11-09T02:24:43.440Z,12.79
2022-11-09T02:25:42.584Z,12.79
2022-11-09T02:26:42.065Z,12.84
2022-11-09T02:27:42.128Z,12.84
2022-11-09T02:28:42.119Z,12.73
2022-11-09T02:29:42.067Z,12.74
2022-11-09T02:30:42.003Z,12.66
2022-11-09T02:31:42.055Z,12.62
2022-11-09T02:32:42.072Z,12.58
2022-11-09T02:33:42.026Z,12.61
2022-11-09T02:34:41.976Z,12.66
2022-11-09T02:35:41.949Z,12.76
2022-11-09T02:36:41.968Z,12.73
2022-11-09T02:37:41.904Z,12.67
2022-11-09T02:38:42.747Z,12.59
2022-11-09T02:39:41.875Z,12.66
2022-11-09T02:40:43.879Z,12.63
2022-11-09T02:41:43.288Z,12.69
2022-11-09T02:42:41.896Z,12.52
2022-11-09T02:43:41.819Z,12.52
2022-11-09T02:44:42.048Z,12.44
2022-11-09T02:45:41.990Z,12.46
2022-11-09T02:46:41.871Z,12.51
2022-11-09T02:47:42.182Z,12.48
2022-11-09T02:48:41.794Z,12.40
2022-11-09T02:49:41.815Z,12.36
2022-11-09T02:50:41.769Z,12.31
2022-11-09T02:51:41.755Z,12.40
2022-11-09T02:52:44.157Z,12.36
2022-11-09T02:53:44.272Z,12.34
2022-11-09T02:54:42.120Z,12.36
2022-11-09T02:55:43.622Z,12.33
2022-11-09T02:56:43.491Z,12.26
2022-11-09T02:57:43.222Z,12.38
2022-11-09T02:58:42.356Z,12.29
2022-11-09T02:59:41.797Z,12.26
2022-11-09T03:00:41.710Z,12.34
2022-11-09T03:01:41.773Z,12.46
2022-11-09T03:02:43.797Z,12.43
2022-11-09T03:03:41.901Z,12.43
2022-11-09T03:04:41.768Z,12.43
2022-11-09T03:05:44.749Z,12.59
2022-11-09T03:06:43.785Z,12.55
2022-11-09T03:07:43.926Z,12.52
2022-11-09T03:08:42.980Z,12.55
2022-11-09T03:09:43.887Z,12.52
2022-11-09T03:10:45.333Z,12.52
2022-11-09T03:11:44.006Z,12.56
2022-11-09T03:12:41.901Z,12.48
2022-11-09T03:13:44.035Z,12.54
2022-11-09T03:14:43.985Z,12.51
2022-11-09T03:15:41.481Z,12.52
2022-11-09T03:16:46.501Z,12.49
2022-11-09T03:17:42.808Z,12.70
2022-11-09T03:18:43.537Z,12.56
2022-11-09T03:19:41.486Z,12.59
2022-11-09T03:20:42.637Z,12.58
2022-11-09T03:21:41.451Z,12.58
2022-11-09T03:22:43.630Z,12.54
2022-11-09T03:23:41.444Z,12.56
2022-11-09T03:24:42.904Z,12.58
2022-11-09T03:25:42.221Z,12.55
2022-11-09T03:26:41.601Z,12.56
2022-11-09T03:27:41.599Z,12.61
2022-11-09T03:28:41.392Z,12.55
2022-11-09T03:29:44.117Z,12.54
2022-11-09T03:30:41.744Z,12.63
2022-11-09T03:31:41.400Z,12.59
2022-11-09T03:32:41.336Z,12.62
2022-11-09T03:33:41.298Z,12.69
2022-11-09T03:34:41.344Z,12.61
2022-11-09T03:35:41.286Z,12.56
2022-11-09T03:36:43.372Z,12.58
2022-11-09T03:37:41.515Z,12.56
2022-11-09T03:38:42.237Z,12.44
2022-11-09T03:39:41.299Z,12.48
2022-11-09T03:40:41.429Z,12.38
2022-11-09T03:41:41.668Z,12.44
2022-11-09T03:42:41.233Z,12.33
2022-11-09T03:43:41.808Z,12.37
2022-11-09T03:44:42.235Z,12.37
2022-11-09T03:45:41.583Z,12.33
2022-11-09T03:46:41.957Z,12.41
2022-11-09T03:47:41.283Z,12.31
2022-11-09T03:48:41.578Z,12.34
2022-11-09T03:49:41.892Z,12.38
2022-11-09T03:50:41.152Z,12.34
2022-11-09T03:51:41.303Z,12.31
2022-11-09T03:52:41.369Z,12.36
2022-11-09T03:53:41.101Z,12.33
2022-11-09T03:54:41.094Z,12.51
2022-11-09T03:55:41.920Z,12.54
2022-11-09T03:56:41.204Z,12.51
2022-11-09T03:57:42.029Z,12.49
2022-11-09T03:58:41.067Z,12.59
2022-11-09T03:59:41.845Z,12.55
2022-11-09T04:00:41.269Z,12.69
2022-11-09T04:01:41.422Z,12.61
2022-11-09T04:02:41.293Z,12.67
2022-11-09T04:03:42.320Z,12.56
2022-11-09T04:04:42.497Z,12.73
2022-11-09T04:05:41.648Z,12.61
2022-11-09T04:06:41.104Z,12.66
2022-11-09T04:07:47.193Z,12.66
2022-11-09T04:08:47.014Z,12.67
2022-11-09T04:09:43.049Z,12.61
2022-11-09T04:10:40.917Z,12.59
2022-11-09T04:11:42.494Z,12.69
2022-11-09T04:12:41.145Z,12.59
2022-11-09T04:13:42.495Z,12.69
2022-11-09T04:14:41.662Z,12.70
2022-11-09T04:15:41.864Z,12.71
2022-11-09T04:16:40.848Z,12.62
2022-11-09T04:17:42.521Z,12.69
2022-11-09T04:18:42.224Z,12.76
2022-11-09T04:19:41.846Z,12.74
2022-11-09T04:20:40.882Z,12.71
2022-11-09T04:21:40.866Z,12.70
2022-11-09T04:22:41.635Z,12.63
2022-11-09T04:23:40.780Z,12.66
2022-11-09T04:24:40.798Z,12.87
2022-11-09T04:25:41.120Z,12.67
2022-11-09T04:26:41.370Z,12.76
2022-11-09T04:27:41.065Z,12.77
2022-11-09T04:28:41.589Z,12.77
2022-11-09T04:29:40.722Z,12.81
2022-11-09T04:30:41.065Z,12.67
2022-11-09T04:31:40.709Z,12.80
2022-11-09T04:32:40.688Z,12.84
2022-11-09T04:33:40.696Z,12.84
2022-11-09T04:34:45.563Z,12.88
2022-11-09T04:35:41.677Z,12.74
2022-11-09T04:36:40.647Z,12.80
2022-11-09T04:37:40.655Z,12.77
2022-11-09T04:38:41.401Z,12.84
2022-11-09T04:39:41.155Z,12.87
2022-11-09T04:40:40.856Z,12.81
2022-11-09T04:41:40.611Z,12.87
2022-11-09T04:42:40.564Z,12.73
2022-11-09T04:43:41.562Z,12.73
2022-11-09T04:44:41.192Z,12.79
2022-11-09T04:45:41.873Z,12.81
2022-11-09T04:46:40.541Z,12.77
2022-11-09T04:47:40.528Z,12.80
2022-11-09T04:48:40.607Z,12.92
2022-11-09T04:49:40.820Z,12.81
2022-11-09T04:50:40.507Z,12.84
2022-11-09T04:51:40.507Z,12.70
2022-11-09T04:52:43.155Z,12.81
2022-11-09T04:53:41.240Z,12.84
2022-11-09T04:54:40.456Z,12.92
2022-11-09T04:55:40.467Z,12.76
2022-11-09T04:56:40.417Z,12.87
2022-11-09T04:57:40.452Z,12.84
2022-11-09T04:58:40.437Z,12.71
2022-11-09T04:59:40.395Z,12.73
2022-11-09T05:00:40.367Z,12.84
2022-11-09T05:01:40.380Z,12.80
2022-11-09T05:02:40.468Z,12.84
2022-11-09T05:03:40.422Z,12.85
2022-11-09T05:04:40.364Z,12.70
2022-11-09T05:05:45.461Z,12.76
2022-11-09T05:06:41.437Z,12.87
2022-11-09T05:07:40.323Z,12.84
2022-11-09T05:08:40.338Z,12.79
2022-11-09T05:09:40.335Z,12.84
2022-11-09T05:10:40.331Z,12.81
2022-11-09T05:11:40.391Z,12.84
2022-11-09T05:12:44.784Z,12.85
2022-11-09T05:13:41.279Z,12.79
2022-11-09T05:14:40.340Z,12.80
2022-11-09T05:15:40.243Z,12.91
2022-11-09T05:16:41.352Z,12.85
2022-11-09T05:17:40.427Z,12.85
2022-11-09T05:18:40.346Z,12.87
2022-11-09T05:19:40.251Z,12.88
2022-11-09T05:20:40.219Z,12.84
2022-11-09T05:21:40.163Z,12.87
2022-11-09T05:22:40.236Z,12.87
2022-11-09T05:23:40.203Z,12.88
2022-11-09T05:24:40.177Z,12.81
2022-11-09T05:25:40.289Z,12.88
2022-11-09T05:26:40.135Z,12.99
2022-11-09T05:27:40.272Z,12.87
2022-11-09T05:28:42.913Z,12.84
2022-11-09T05:29:40.111Z,12.91
2022-11-09T05:30:40.143Z,12.85
2022-11-09T05:31:40.065Z,12.92
2022-11-09T05:32:40.140Z,12.96
2022-11-09T05:33:40.072Z,13.03
2022-11-09T05:34:40.068Z,12.88
2022-11-09T05:35:40.043Z,12.88
2022-11-09T05:36:40.173Z,12.94
2022-11-09T05:37:40.047Z,12.85
2022-11-09T05:38:40.067Z,12.91
2022-11-09T05:39:40.041Z,13.07
2022-11-09T05:40:39.996Z,12.96
2022-11-09T05:41:40.000Z,12.95
2022-11-09T05:42:39.996Z,13.01
2022-11-09T05:43:39.980Z,13.03
2022-11-09T05:44:40.017Z,12.94
2022-11-09T05:45:43.060Z,13.04
2022-11-09T05:46:40.987Z,13.01
2022-11-09T05:47:39.951Z,13.06
2022-11-09T05:48:39.938Z,12.95
2022-11-09T05:49:40.014Z,12.99
2022-11-09T05:50:39.875Z,13.03
2022-11-09T05:51:39.963Z,13.03
2022-11-09T05:52:39.916Z,13.04
2022-11-09T05:53:43.682Z,13.06
2022-11-09T05:54:41.837Z,12.99
2022-11-09T05:55:39.863Z,13.03
2022-11-09T05:56:39.847Z,13.01
2022-11-09T05:57:39.844Z,13.04
2022-11-09T05:58:39.918Z,13.13
2022-11-09T05:59:39.768Z,13.12
2022-11-09T06:00:39.804Z,13.06
2022-11-09T06:01:39.853Z,13.04
2022-11-09T06:02:39.840Z,13.04
2022-11-09T06:03:39.765Z,12.99
2022-11-09T06:04:39.728Z,12.98
2022-11-09T06:05:39.759Z,13.14
2022-11-09T06:06:39.927Z,13.12
2022-11-09T06:07:39.782Z,13.14
2022-11-09T06:08:39.699Z,13.03
2022-11-09T06:09:39.684Z,13.07
2022-11-09T06:10:39.677Z,13.09
2022-11-09T06:11:40.553Z,13.14
2022-11-09T06:12:39.676Z,13.06
2022-11-09T06:13:39.626Z,13.06
2022-11-09T06:14:39.630Z,12.95
2022-11-09T06:15:39.610Z,13.01
2022-11-09T06:16:39.647Z,13.03
2022-11-09T06:17:39.709Z,13.10
2022-11-09T06:18:39.578Z,13.22
2022-11-09T06:19:39.565Z,13.24
2022-11-09T06:20:39.594Z,13.17
2022-11-09T06:21:39.745Z,13.17
2022-11-09T06:22:39.570Z,13.24
2022-11-09T06:23:39.635Z,13.24
2022-11-09T06:24:39.493Z,13.16
2022-11-09T06:25:40.465Z,13.07
2022-11-09T06:26:39.509Z,13.07
2022-11-09T06:27:39.499Z,13.04
2022-11-09T06:28:39.451Z,12.98
2022-11-09T06:29:40.406Z,13.07
2022-11-09T06:30:39.462Z,13.04
2022-11-09T06:31:39.469Z,13.01
2022-11-09T06:32:39.442Z,13.09
2022-11-09T06:33:39.415Z,13.04
2022-11-09T06:34:39.423Z,13.12
2022-11-09T06:35:39.405Z,13.10
2022-11-09T06:36:40.458Z,13.19
2022-11-09T06:37:40.010Z,13.07
2022-11-09T06:38:40.447Z,13.17
2022-11-09T06:39:39.371Z,13.10
2022-11-09T06:40:39.386Z,13.12
2022-11-09T06:41:42.202Z,13.12
2022-11-09T06:42:40.395Z,13.25
2022-11-09T06:43:39.336Z,13.19
2022-11-09T06:44:39.357Z,13.13
2022-11-09T06:45:39.290Z,13.13
2022-11-09T06:46:39.290Z,13.12
2022-11-09T06:47:39.372Z,13.17
2022-11-09T06:48:39.272Z,13.16
2022-11-09T06:49:39.252Z,13.24
2022-11-09T06:50:39.228Z,13.21
2022-11-09T06:51:39.298Z,13.09
2022-11-09T06:52:39.908Z,13.09
2022-11-09T06:53:39.271Z,13.07
2022-11-09T06:54:39.182Z,13.09
2022-11-09T06:55:39.228Z,13.04
2022-11-09T06:56:39.556Z,13.07
2022-11-09T06:57:39.135Z,13.04
2022-11-09T06:58:39.196Z,13.09
2022-11-09T06:59:39.143Z,13.13
2022-11-09T07:00:39.121Z,13.07
2022-11-09T07:01:39.160Z,13.12
2022-11-09T07:02:40.999Z,13.09
2022-11-09T07:03:42.223Z,13.06
2022-11-09T07:04:41.299Z,13.19
2022-11-09T07:05:40.247Z,13.22
2022-11-09T07:06:39.647Z,13.12
2022-11-09T07:07:40.401Z,13.13
2022-11-09T07:08:39.072Z,13.12
2022-11-09T07:09:39.126Z,13.10
2022-11-09T07:10:39.373Z,13.12
2022-11-09T07:11:38.992Z,13.22
2022-11-09T07:12:39.019Z,13.09
2022-11-09T07:13:39.032Z,13.10
2022-11-09T07:14:38.960Z,12.99
2022-11-09T07:15:38.956Z,13.10
2022-11-09T07:16:38.952Z,13.07
2022-11-09T07:17:39.095Z,13.12
2022-11-09T07:18:38.933Z,13.12
2022-11-09T07:19:40.494Z,13.22
2022-11-09T07:20:40.311Z,13.14
2022-11-09T07:21:42.551Z,13.17
2022-11-09T07:22:39.538Z,13.22
2022-11-09T07:23:41.232Z,13.28
2022-11-09T07:24:42.153Z,13.27
2022-11-09T07:25:40.133Z,13.24
2022-11-09T07:26:41.735Z,13.29
2022-11-09T07:27:43.253Z,13.22
2022-11-09T07:28:43.726Z,13.25
2022-11-09T07:29:39.963Z,13.28
2022-11-09T07:30:39.293Z,13.28
2022-11-09T07:31:40.433Z,13.27
2022-11-09T07:33:08.469Z,13.35
2022-11-09T07:33:41.689Z,13.27
2022-11-09T07:34:38.761Z,13.28
2022-11-09T07:35:43.032Z,13.32
2022-11-09T07:36:41.529Z,13.38
2022-11-09T07:37:40.605Z,13.39
2022-11-09T07:38:41.080Z,13.36
2022-11-09T07:39:39.497Z,13.35
2022-11-09T07:40:41.894Z,13.25
2022-11-09T07:41:40.910Z,13.32
2022-11-09T07:42:41.401Z,13.29
2022-11-09T07:43:40.570Z,13.29
2022-11-09T07:44:39.957Z,13.29
2022-11-09T07:45:40.102Z,13.48
2022-11-09T07:46:39.893Z,13.50
2022-11-09T07:47:41.479Z,13.39
2022-11-09T07:48:38.565Z,13.48
2022-11-09T07:49:38.773Z,13.39
2022-11-09T07:50:38.907Z,13.36
2022-11-09T07:51:39.906Z,13.39
2022-11-09T07:52:39.273Z,13.28
2022-11-09T07:53:38.582Z,13.43
2022-11-09T07:54:39.554Z,13.36
2022-11-09T07:55:38.561Z,13.35
2022-11-09T07:56:38.552Z,13.41
2022-11-09T07:57:38.519Z,13.36
2022-11-09T07:58:38.549Z,13.39
2022-11-09T07:59:38.626Z,13.39
2022-11-09T08:00:38.463Z,13.48
2022-11-09T08:01:38.563Z,13.43
2022-11-09T08:02:38.466Z,13.46
2022-11-09T08:03:38.534Z,13.50
2022-11-09T08:04:38.406Z,13.51
2022-11-09T08:05:39.305Z,13.44
2022-11-09T08:06:40.077Z,13.47
2022-11-09T08:07:42.411Z,13.46
2022-11-09T08:08:39.017Z,13.46
2022-11-09T08:09:40.724Z,13.51
2022-11-09T08:10:38.547Z,13.48
2022-11-09T08:11:38.322Z,13.57
2022-11-09T08:12:38.383Z,13.54
2022-11-09T08:13:38.372Z,13.46
2022-11-09T08:14:38.301Z,13.57
2022-11-09T08:15:38.348Z,13.51
2022-11-09T08:16:38.375Z,13.50
2022-11-09T08:17:38.253Z,13.46
2022-11-09T08:18:38.305Z,13.48
2022-11-09T08:19:38.301Z,13.53
2022-11-09T08:20:38.257Z,13.55
2022-11-09T08:21:38.259Z,13.53
2022-11-09T08:22:38.534Z,13.50
2022-11-09T08:23:38.214Z,13.54
2022-11-09T08:24:38.265Z,13.55
2022-11-09T08:25:38.311Z,13.59
2022-11-09T08:26:38.218Z,13.55
2022-11-09T08:27:38.297Z,13.59
2022-11-09T08:28:38.237Z,13.53
2022-11-09T08:29:38.167Z,13.51
2022-11-09T08:30:38.246Z,13.55
2022-11-09T08:31:38.112Z,13.59
2022-11-09T08:32:38.553Z,13.57
2022-11-09T08:33:38.135Z,13.62
2022-11-09T08:34:38.176Z,13.65
2022-11-09T08:35:38.098Z,13.69
2022-11-09T08:36:38.090Z,13.61
2022-11-09T08:37:38.378Z,13.62
2022-11-09T08:38:38.119Z,13.62
2022-11-09T08:39:38.051Z,13.65
2022-11-09T08:40:38.100Z,13.55
2022-11-09T08:41:38.063Z,13.63
2022-11-09T08:42:37.983Z,13.62
2022-11-09T08:43:39.431Z,13.62
2022-11-09T08:44:37.998Z,13.62
2022-11-09T08:45:37.959Z,13.68
2022-11-09T08:46:41.196Z,13.62
2022-11-09T08:47:38.976Z,13.59
2022-11-09T08:48:37.978Z,13.62
2022-11-09T08:49:38.071Z,13.65
2022-11-09T08:50:37.924Z,13.61
2022-11-09T08:51:37.919Z,13.68
2022-11-09T08:52:37.922Z,13.59
2022-11-09T08:53:38.197Z,13.61
2022-11-09T08:54:37.850Z,13.69
2022-11-09T08:55:37.865Z,13.65
2022-11-09T08:56:37.911Z,13.59
2022-11-09T08:57:38.101Z,13.69
2022-11-09T08:58:37.971Z,13.76
2022-11-09T08:59:37.827Z,13.71
2022-11-09T09:00:37.791Z,13.73
2022-11-09T09:01:37.966Z,13.81
2022-11-09T09:02:37.872Z,13.81
2022-11-09T09:03:37.765Z,13.83
2022-11-09T09:04:37.792Z,13.88
2022-11-09T09:05:37.711Z,13.84
2022-11-09T09:06:38.236Z,13.81
2022-11-09T09:07:37.919Z,13.90
2022-11-09T09:08:37.747Z,13.87
2022-11-09T09:09:37.720Z,13.84
2022-11-09T09:10:37.689Z,13.83
2022-11-09T09:11:37.807Z,13.93
2022-11-09T09:12:38.688Z,13.93
2022-11-09T09:13:42.874Z,13.96
2022-11-09T09:14:39.825Z,13.86
2022-11-09T09:15:37.608Z,13.98
2022-11-09T09:16:37.660Z,13.88
2022-11-09T09:17:37.622Z,13.90
2022-11-09T09:18:37.633Z,13.90
2022-11-09T09:19:37.809Z,13.84
2022-11-09T09:20:37.690Z,13.80
2022-11-09T09:21:37.584Z,13.88
2022-11-09T09:22:37.534Z,13.96
2022-11-09T09:23:37.581Z,13.93
2022-11-09T09:24:37.565Z,13.93
2022-11-09T09:25:37.627Z,13.93
2022-11-09T09:26:37.561Z,14.04
2022-11-09T09:27:37.512Z,14.26
2022-11-09T09:28:37.783Z,14.27
2022-11-09T09:29:37.565Z,14.27
2022-11-09T09:30:37.508Z,14.46
2022-11-09T09:31:37.485Z,14.78
2022-11-09T09:32:37.444Z,14.93
2022-11-09T09:33:37.425Z,15.04
2022-11-09T09:34:37.538Z,14.79
2022-11-09T09:35:37.936Z,14.71
2022-11-09T09:36:37.357Z,14.52
2022-11-09T09:37:37.421Z,14.48
2022-11-09T09:38:37.409Z,14.38
2022-11-09T09:39:37.406Z,14.34
2022-11-09T09:40:37.349Z,14.35
2022-11-09T09:41:37.370Z,14.26
2022-11-09T09:42:37.298Z,14.19
2022-11-09T09:43:42.729Z,14.16
2022-11-09T09:44:39.074Z,14.13
2022-11-09T09:45:37.273Z,14.20
2022-11-09T09:46:37.441Z,14.17
2022-11-09T09:47:37.309Z,14.16
2022-11-09T09:48:37.285Z,14.11
2022-11-09T09:49:37.285Z,14.08
2022-11-09T09:50:38.007Z,13.96
2022-11-09T09:51:37.213Z,13.99
2022-11-09T09:52:37.210Z,14.02
2022-11-09T09:53:37.218Z,14.02
2022-11-09T09:54:37.280Z,14.09
2022-11-09T09:55:37.182Z,14.16
2022-11-09T09:56:37.299Z,14.11
2022-11-09T09:57:41.675Z,14.19
2022-11-09T09:58:39.196Z,14.17
2022-11-09T09:59:37.131Z,14.23
2022-11-09T10:00:37.146Z,14.16
2022-11-09T10:01:37.130Z,14.17
2022-11-09T10:02:37.899Z,14.20
2022-11-09T10:03:37.130Z,14.16
2022-11-09T10:04:37.120Z,14.24
2022-11-09T10:05:37.372Z,14.24
2022-11-09T10:06:37.210Z,14.13
2022-11-09T10:07:37.039Z,14.19
2022-11-09T10:08:37.177Z,14.26
2022-11-09T10:09:39.887Z,14.19
2022-11-09T10:10:37.024Z,14.26
2022-11-09T10:11:36.994Z,14.21
2022-11-09T10:12:36.959Z,14.21
2022-11-09T10:13:37.143Z,14.16
2022-11-09T10:14:36.943Z,14.13
2022-11-09T10:15:36.960Z,14.27
2022-11-09T10:16:36.934Z,14.27
2022-11-09T10:17:36.968Z,14.34
2022-11-09T10:18:37.405Z,14.29
2022-11-09T10:19:36.923Z,14.30
2022-11-09T10:20:36.916Z,14.34
2022-11-09T10:21:36.918Z,14.38
2022-11-09T10:22:36.901Z,14.42
2022-11-09T10:23:36.853Z,14.44
2022-11-09T10:24:41.194Z,14.44
2022-11-09T10:26:02.223Z,14.49
2022-11-09T10:26:39.091Z,14.54
2022-11-09T10:27:37.485Z,14.48
2022-11-09T10:28:54.672Z,14.54
2022-11-09T10:29:38.836Z,14.53
2022-11-09T10:30:36.764Z,14.61
2022-11-09T10:31:36.752Z,14.48
2022-11-09T10:32:37.664Z,14.60
2022-11-09T10:33:36.758Z,14.64
2022-11-09T10:34:36.686Z,14.56
2022-11-09T10:35:36.692Z,14.63
2022-11-09T10:36:37.522Z,14.54
2022-11-09T10:37:36.738Z,14.56
2022-11-09T10:38:36.686Z,14.56
2022-11-09T10:39:36.645Z,14.42
2022-11-09T10:40:36.809Z,14.52
2022-11-09T10:41:36.633Z,14.57
2022-11-09T10:42:36.659Z,14.45
2022-11-09T10:43:36.767Z,14.49
2022-11-09T10:44:36.578Z,14.56
2022-11-09T10:45:36.636Z,14.48
2022-11-09T10:46:36.553Z,14.56
2022-11-09T10:47:36.691Z,14.63
2022-11-09T10:48:36.574Z,14.61
2022-11-09T10:49:36.554Z,14.56
2022-11-09T10:50:36.535Z,14.59
2022-11-09T10:51:37.074Z,14.54
2022-11-09T10:52:36.579Z,14.57
2022-11-09T10:53:36.471Z,14.60
2022-11-09T10:54:36.474Z,14.63
2022-11-09T10:55:36.521Z,14.61
2022-11-09T10:56:47.227Z,14.83
2022-11-09T10:57:38.467Z,14.67
2022-11-09T10:58:36.408Z,14.57
2022-11-09T10:59:36.398Z,14.59
2022-11-09T11:00:36.714Z,14.63
2022-11-09T11:01:36.420Z,14.71
2022-11-09T11:02:37.774Z,14.72
2022-11-09T11:03:36.370Z,14.72
2022-11-09T11:04:36.342Z,14.78
2022-11-09T11:05:36.401Z,14.75
2022-11-09T11:06:36.417Z,14.71
2022-11-09T11:07:36.344Z,14.74
2022-11-09T11:08:36.320Z,14.80
2022-11-09T11:09:36.353Z,14.69
2022-11-09T11:10:36.836Z,14.67
2022-11-09T11:11:37.216Z,14.69
2022-11-09T11:12:37.261Z,14.74
2022-11-09T11:13:36.228Z,14.85
2022-11-09T11:14:36.224Z,14.80
2022-11-09T11:15:36.268Z,14.95
2022-11-09T11:16:36.249Z,14.90
2022-11-09T11:17:37.884Z,14.97
2022-11-09T11:18:36.165Z,14.93
2022-11-09T11:19:36.180Z,15.01
2022-11-09T11:20:36.154Z,14.83
2022-11-09T11:21:36.185Z,14.86
2022-11-09T11:22:36.107Z,14.91
2022-11-09T11:23:37.147Z,15.01
2022-11-09T11:24:36.107Z,14.91
2022-11-09T11:25:36.295Z,14.90
2022-11-09T11:26:36.295Z,14.83
2022-11-09T11:27:36.111Z,14.87
2022-11-09T11:28:36.089Z,14.93
2022-11-09T11:29:36.226Z,14.83
2022-11-09T11:30:36.047Z,14.79
2022-11-09T11:31:36.030Z,14.78
2022-11-09T11:32:35.999Z,14.80
2022-11-09T11:33:36.035Z,14.82
2022-11-09T11:34:59.094Z,14.90
2022-11-09T11:35:38.000Z,14.87
2022-11-09T11:36:35.953Z,15.01
2022-11-09T11:37:35.987Z,15.09
2022-11-09T11:38:35.960Z,15.20
2022-11-09T11:39:35.914Z,15.13
2022-11-09T11:40:36.098Z,15.25
2022-11-09T11:41:35.902Z,15.38
2022-11-09T11:42:35.903Z,15.37
2022-11-09T11:43:36.310Z,15.55
2022-11-09T11:44:35.960Z,15.28
2022-11-09T11:45:40.771Z,15.41
2022-11-09T11:46:37.840Z,15.35
2022-11-09T11:47:35.801Z,15.30
2022-11-09T11:48:35.863Z,15.28
2022-11-09T11:49:35.800Z,15.31
2022-11-09T11:50:35.954Z,15.30
2022-11-09T11:51:35.779Z,15.49
2022-11-09T11:52:36.635Z,15.46
2022-11-09T11:53:40.685Z,15.48
2022-11-09T11:54:37.713Z,15.44
2022-11-09T11:55:35.746Z,15.34
2022-11-09T11:56:35.773Z,15.28
2022-11-09T11:57:35.705Z,15.48
2022-11-09T11:58:36.044Z,15.41
2022-11-09T11:59:35.675Z,15.53
2022-11-09T12:00:36.153Z,15.44
2022-11-09T12:02:08.069Z,15.34
2022-11-09T12:02:36.589Z,15.38
2022-11-09T12:03:35.660Z,15.43
2022-11-09T12:05:10.420Z,15.40
2022-11-09T12:05:35.618Z,15.53
2022-11-09T12:06:37.195Z,15.89
2022-11-09T12:07:35.591Z,16.08
2022-11-09T12:08:35.677Z,15.98
2022-11-09T12:09:35.699Z,16.17
2022-11-09T12:10:35.566Z,16.25
2022-11-09T12:11:36.094Z,16.22
2022-11-09T12:12:36.491Z,16.26
2022-11-09T12:14:08.942Z,16.32
2022-11-09T12:15:07.919Z,16.17
2022-11-09T12:15:35.493Z,16.54
2022-11-09T12:16:35.498Z,16.80
2022-11-09T12:17:37.075Z,16.84
2022-11-09T12:18:36.240Z,16.95
2022-11-09T12:19:36.078Z,17.28
2022-11-09T12:20:36.493Z,17.22
2022-11-09T12:21:35.481Z,17.09
2022-11-09T12:22:35.421Z,16.81
2022-11-09T12:23:35.538Z,16.69
2022-11-09T12:24:35.402Z,16.95
2022-11-09T12:25:35.419Z,17.18
2022-11-09T12:26:35.396Z,17.42
2022-11-09T12:27:35.408Z,17.17
2022-11-09T12:28:35.414Z,16.66
2022-11-09T12:29:35.391Z,16.91
2022-11-09T12:30:35.642Z,16.85
2022-11-09T12:31:35.331Z,16.59
2022-11-09T12:32:35.359Z,16.62
2022-11-09T12:33:39.357Z,16.81
2022-11-09T12:34:39.312Z,16.62
2022-11-09T12:35:36.144Z,16.59
2022-11-09T12:36:35.370Z,16.44
2022-11-09T12:37:35.257Z,16.25
2022-11-09T12:38:35.250Z,15.99
2022-11-09T12:39:35.352Z,15.99
2022-11-09T12:40:35.240Z,16.04
2022-11-09T12:41:35.315Z,15.96
2022-11-09T12:42:35.201Z,15.84
2022-11-09T12:43:35.188Z,15.88
2022-11-09T12:44:35.159Z,15.76
2022-11-09T12:45:35.148Z,15.67
2022-11-09T12:46:35.197Z,15.68
2022-11-09T12:47:35.200Z,15.64
2022-11-09T12:48:35.113Z,15.59
2022-11-09T12:49:35.253Z,15.62
2022-11-09T12:50:35.092Z,15.53
2022-11-09T12:51:35.537Z,15.71
2022-11-09T12:52:35.128Z,15.59